Аэропорт: Сургут. Сургут

ICAO: USRR

METAR:
2019/05/26 14:00
USRR 261400Z 34003MPS 300V010 CAVOK 06/M02 Q1015 R25/CLRD60 NOSIG RMK QFE756
METAR:
2019/05/26 12:24
TAF TAF USRR 261055Z 2612/2712 29006G14MPS 9999 BKN015CB 
      TEMPO 2612/2618 3100 -SHSNRA BKN011 BKN015CB 
      BECMG 2616/2618 22005MPS 
      TEMPO 2618/2621 BKN011 BKN015CB